createdAt,value
2018-11-04T00:00:01.497Z,0.70
2018-11-04T00:02:31.686Z,0.70
2018-11-04T00:05:01.939Z,0.70
2018-11-04T00:07:32.138Z,0.70
2018-11-04T00:10:02.351Z,0.70
2018-11-04T00:12:32.538Z,0.60
2018-11-04T00:15:02.670Z,0.60
2018-11-04T00:17:33.005Z,0.60
2018-11-04T00:20:03.172Z,0.60
2018-11-04T00:22:33.342Z,0.60
2018-11-04T00:25:03.477Z,0.60
2018-11-04T00:27:33.687Z,0.60
2018-11-04T00:30:03.946Z,0.60
2018-11-04T00:32:34.109Z,0.60
2018-11-04T00:35:04.349Z,0.50
2018-11-04T00:37:34.512Z,0.60
2018-11-04T00:40:04.809Z,0.60
2018-11-04T00:42:34.943Z,0.60
2018-11-04T00:45:05.869Z,0.50
2018-11-04T00:47:36.040Z,0.50
2018-11-04T00:50:08.349Z,0.50
2018-11-04T00:52:38.474Z,0.50
2018-11-04T00:55:09.104Z,0.50
2018-11-04T00:57:39.281Z,0.50
2018-11-04T01:00:12.739Z,0.50
2018-11-04T01:02:43.436Z,0.40
2018-11-04T01:05:13.631Z,0.40
2018-11-04T01:07:43.915Z,0.40
2018-11-04T01:10:14.230Z,0.30
2018-11-04T01:12:44.938Z,0.40
2018-11-04T01:15:15.833Z,0.40
2018-11-04T01:17:46.030Z,0.40
2018-11-04T01:20:17.241Z,0.40
2018-11-04T01:22:47.380Z,0.40
2018-11-04T01:25:17.598Z,0.40
2018-11-04T01:27:47.780Z,0.40
2018-11-04T01:30:18.059Z,0.40
2018-11-04T01:32:48.219Z,0.40
2018-11-04T01:35:18.386Z,0.40
2018-11-04T01:37:48.603Z,0.30
2018-11-04T01:40:18.750Z,0.30
2018-11-04T01:42:48.966Z,0.30
2018-11-04T01:45:19.072Z,0.30
2018-11-04T01:47:49.275Z,0.30
2018-11-04T01:50:19.395Z,0.30
2018-11-04T01:52:49.537Z,0.30
2018-11-04T01:55:19.703Z,0.40
2018-11-04T01:57:49.818Z,0.30
2018-11-04T02:00:19.990Z,0.30
2018-11-04T02:02:50.190Z,0.30
2018-11-04T02:05:20.419Z,0.30
2018-11-04T02:07:50.710Z,0.30
2018-11-04T02:10:20.848Z,0.30
2018-11-04T02:12:51.010Z,0.20
2018-11-04T02:15:21.151Z,0.20
2018-11-04T02:17:51.273Z,0.20
2018-11-04T02:20:21.484Z,0.20
2018-11-04T02:22:51.578Z,0.30
2018-11-04T02:25:21.743Z,0.20
2018-11-04T02:27:51.887Z,0.30
2018-11-04T02:30:22.138Z,0.30
2018-11-04T02:32:52.296Z,0.30
2018-11-04T02:35:22.463Z,0.30
2018-11-04T02:37:52.628Z,0.30
2018-11-04T02:40:22.782Z,0.30
2018-11-04T02:42:52.897Z,0.20
2018-11-04T02:45:23.106Z,0.20
2018-11-04T02:47:53.241Z,0.20
2018-11-04T02:50:23.401Z,0.20
2018-11-04T02:52:55.521Z,0.20
2018-11-04T02:55:25.647Z,0.20
2018-11-04T02:57:55.808Z,0.20
2018-11-04T03:00:25.953Z,0.20
2018-11-04T03:02:56.112Z,0.20
2018-11-04T03:05:26.227Z,0.20
2018-11-04T03:07:56.390Z,0.30
2018-11-04T03:10:26.571Z,0.30
2018-11-04T03:12:56.795Z,0.30
2018-11-04T03:15:26.960Z,0.40
2018-11-04T03:17:57.141Z,0.40
2018-11-04T03:20:27.328Z,0.40
2018-11-04T03:22:57.477Z,0.40
2018-11-04T03:25:27.689Z,0.40
2018-11-04T03:27:57.789Z,0.40
2018-11-04T03:30:28.045Z,0.40
2018-11-04T03:32:58.178Z,0.40
2018-11-04T03:35:28.383Z,0.40
2018-11-04T03:37:58.508Z,0.40
2018-11-04T03:40:28.796Z,0.30
2018-11-04T03:42:58.915Z,0.30
2018-11-04T03:45:29.098Z,0.30
2018-11-04T03:47:59.226Z,0.20
2018-11-04T03:50:29.377Z,0.20
2018-11-04T03:53:05.488Z,0.10
2018-11-04T03:55:36.637Z,0.10
2018-11-04T03:58:06.942Z,0.10
2018-11-04T04:00:37.056Z,0.10
2018-11-04T04:03:07.257Z,0.10
2018-11-04T04:05:37.437Z,0.10
2018-11-04T04:08:07.782Z,0.10
2018-11-04T04:10:37.946Z,0.00
2018-11-04T04:13:08.133Z,0.00
2018-11-04T04:15:38.257Z,0.00
2018-11-04T04:18:08.455Z,0.00
2018-11-04T04:20:38.607Z,0.00
2018-11-04T04:23:08.760Z,0.00
2018-11-04T04:25:38.940Z,0.00
2018-11-04T04:28:09.073Z,0.00
2018-11-04T04:30:39.250Z,0.00
2018-11-04T04:33:09.372Z,0.00
2018-11-04T04:35:39.568Z,0.00
2018-11-04T04:38:09.705Z,0.00
2018-11-04T04:40:39.927Z,0.00
2018-11-04T04:43:10.054Z,-0.10
2018-11-04T04:45:40.201Z,-0.10
2018-11-04T04:48:10.405Z,-0.10
2018-11-04T04:50:40.573Z,-0.10
2018-11-04T04:53:10.778Z,-0.10
2018-11-04T04:55:40.916Z,-0.10
2018-11-04T04:58:11.102Z,0.00
2018-11-04T05:00:41.232Z,0.00
2018-11-04T05:03:11.398Z,0.10
2018-11-04T05:05:41.592Z,0.20
2018-11-04T05:08:11.874Z,0.30
2018-11-04T05:10:42.045Z,0.30
2018-11-04T05:13:12.224Z,0.40
2018-11-04T05:15:42.371Z,0.50
2018-11-04T05:18:12.552Z,0.50
2018-11-04T05:20:42.859Z,0.60
2018-11-04T05:23:13.012Z,0.60
2018-11-04T05:25:43.206Z,0.70
2018-11-04T05:28:13.349Z,0.80
2018-11-04T05:30:43.560Z,0.90
2018-11-04T05:33:13.745Z,1.00
2018-11-04T05:35:43.956Z,1.00
2018-11-04T05:38:14.144Z,1.10
2018-11-04T05:40:44.298Z,1.20
2018-11-04T05:43:14.549Z,1.20
2018-11-04T05:45:44.773Z,1.30
2018-11-04T05:48:14.976Z,1.40
2018-11-04T05:50:45.169Z,1.50
2018-11-04T05:53:15.370Z,1.60
2018-11-04T05:55:45.509Z,1.70
2018-11-04T05:58:15.763Z,1.70
2018-11-04T06:00:45.903Z,1.70
2018-11-04T06:03:16.131Z,1.80
2018-11-04T06:05:46.233Z,1.80
2018-11-04T06:08:16.361Z,1.80
2018-11-04T06:10:46.586Z,1.90
2018-11-04T06:13:16.796Z,2.00
2018-11-04T06:15:46.896Z,2.10
2018-11-04T06:18:17.089Z,2.20
2018-11-04T06:20:47.307Z,2.20
2018-11-04T06:23:17.444Z,2.30
2018-11-04T06:25:47.610Z,2.40
2018-11-04T06:28:17.773Z,2.30
2018-11-04T06:30:48.004Z,2.40
2018-11-04T06:33:18.222Z,2.40
2018-11-04T06:35:48.568Z,2.40
2018-11-04T06:38:18.754Z,2.50
2018-11-04T06:40:49.020Z,2.50
2018-11-04T06:43:19.259Z,2.60
2018-11-04T06:45:49.414Z,2.60
2018-11-04T06:48:19.598Z,2.60
2018-11-04T06:50:49.759Z,2.70
2018-11-04T06:53:19.879Z,2.70
2018-11-04T06:55:50.052Z,2.70
2018-11-04T06:58:20.157Z,2.80
2018-11-04T07:00:50.308Z,2.80
2018-11-04T07:03:20.525Z,2.80
2018-11-04T07:05:50.718Z,2.90
2018-11-04T07:08:20.885Z,2.90
2018-11-04T07:10:51.096Z,3.00
2018-11-04T07:13:21.237Z,3.10
2018-11-04T07:15:51.787Z,3.20
2018-11-04T07:18:22.367Z,3.20
2018-11-04T07:20:52.790Z,3.30
2018-11-04T07:23:23.285Z,3.40
2018-11-04T07:25:53.631Z,3.40
2018-11-04T07:28:23.876Z,3.40
2018-11-04T07:30:54.185Z,3.50
2018-11-04T07:33:24.678Z,3.50
2018-11-04T07:35:55.097Z,3.50
2018-11-04T07:38:25.457Z,3.60
2018-11-04T07:40:55.722Z,3.70
2018-11-04T07:43:26.058Z,3.70
2018-11-04T07:45:56.303Z,3.90
2018-11-04T07:48:26.668Z,3.90
2018-11-04T07:50:56.943Z,4.00
2018-11-04T07:53:27.322Z,4.00
2018-11-04T07:55:57.654Z,4.10
2018-11-04T07:58:27.905Z,4.10
2018-11-04T08:00:58.211Z,4.20
2018-11-04T08:03:28.315Z,4.30
2018-11-04T08:05:58.571Z,4.40
2018-11-04T08:08:28.684Z,4.40
2018-11-04T08:10:58.977Z,4.50
2018-11-04T08:13:29.107Z,4.60
2018-11-04T08:15:59.284Z,4.80
2018-11-04T08:18:29.472Z,4.80
2018-11-04T08:20:59.642Z,4.90
2018-11-04T08:23:29.754Z,4.90
2018-11-04T08:26:00.010Z,5.00
2018-11-04T08:28:30.115Z,5.00
2018-11-04T08:31:00.253Z,5.10
2018-11-04T08:33:30.629Z,5.20
2018-11-04T08:36:00.783Z,5.30
2018-11-04T08:38:31.053Z,5.40
2018-11-04T08:41:01.282Z,5.50
2018-11-04T08:43:31.522Z,5.50
2018-11-04T08:46:01.809Z,5.60
2018-11-04T08:48:32.070Z,5.70
2018-11-04T08:51:02.427Z,5.80
2018-11-04T08:53:32.787Z,5.80
2018-11-04T08:56:02.991Z,5.90
2018-11-04T08:58:33.328Z,6.00
2018-11-04T09:01:03.598Z,6.10
2018-11-04T09:03:34.006Z,6.20
2018-11-04T09:06:17.308Z,6.30
2018-11-04T09:08:47.955Z,6.40
2018-11-04T09:11:18.315Z,6.50
2018-11-04T09:13:48.713Z,6.70
2018-11-04T09:16:19.026Z,6.80
2018-11-04T09:18:49.259Z,6.90
2018-11-04T09:21:19.560Z,7.00
2018-11-04T09:23:49.789Z,7.10
2018-11-04T09:26:19.978Z,7.20
2018-11-04T09:28:50.213Z,7.30
2018-11-04T09:31:20.514Z,7.40
2018-11-04T09:33:50.778Z,7.50
2018-11-04T09:36:22.500Z,7.40
2018-11-04T09:38:53.841Z,7.60
2018-11-04T09:41:24.150Z,7.60
2018-11-04T09:43:54.468Z,7.70
2018-11-04T09:46:25.025Z,7.80
2018-11-04T09:48:55.298Z,7.90
2018-11-04T09:51:25.657Z,8.00
2018-11-04T09:53:55.940Z,8.20
2018-11-04T09:56:26.248Z,8.30
2018-11-04T09:58:56.655Z,8.40
2018-11-04T10:01:29.197Z,8.50
2018-11-04T10:04:01.710Z,8.50
2018-11-04T10:06:34.298Z,8.60
2018-11-04T10:09:09.665Z,8.70
2018-11-04T10:11:40.807Z,8.70
2018-11-04T10:14:13.631Z,8.80
2018-11-04T10:16:44.042Z,9.00
2018-11-04T10:19:40.597Z,9.10
2018-11-04T10:22:12.092Z,9.20
2018-11-04T10:24:43.710Z,9.30
2018-11-04T10:27:14.225Z,9.50
2018-11-04T10:29:44.664Z,9.60
2018-11-04T10:32:15.102Z,9.60
2018-11-04T10:34:45.853Z,9.70
2018-11-04T10:37:16.507Z,9.70
2018-11-04T10:39:46.953Z,9.80
2018-11-04T10:42:17.248Z,9.90
2018-11-04T10:44:47.821Z,10.00
2018-11-04T10:47:18.036Z,10.00
2018-11-04T10:49:48.374Z,10.10
2018-11-04T10:52:18.698Z,10.00
2018-11-04T10:54:48.914Z,10.00
2018-11-04T10:57:19.102Z,10.10
2018-11-04T10:59:49.512Z,10.20
2018-11-04T11:02:19.935Z,10.30
2018-11-04T11:04:50.109Z,10.40
2018-11-04T11:07:20.412Z,10.40
2018-11-04T11:09:50.663Z,10.40
2018-11-04T11:12:20.909Z,10.40
2018-11-04T11:14:51.181Z,10.50
2018-11-04T11:17:21.399Z,10.70
2018-11-04T11:19:51.718Z,10.70
2018-11-04T11:22:21.930Z,10.80
2018-11-04T11:24:52.225Z,11.00
2018-11-04T11:27:22.482Z,11.00
2018-11-04T11:29:52.754Z,11.10
2018-11-04T11:32:23.130Z,11.00
2018-11-04T11:34:53.403Z,11.10
2018-11-04T11:37:23.690Z,11.10
2018-11-04T11:39:53.988Z,11.20
2018-11-04T11:42:24.452Z,11.20
2018-11-04T11:44:54.733Z,11.10
2018-11-04T11:47:25.010Z,11.10
2018-11-04T11:49:55.302Z,11.10
2018-11-04T11:52:25.639Z,11.20
2018-11-04T11:54:55.894Z,11.20
2018-11-04T11:57:26.229Z,11.20
2018-11-04T11:59:56.476Z,11.20
2018-11-04T12:02:26.752Z,11.30
2018-11-04T12:04:57.079Z,11.40
2018-11-04T12:07:27.370Z,11.50
2018-11-04T12:09:57.693Z,11.50
2018-11-04T12:12:27.990Z,11.50
2018-11-04T12:14:58.382Z,11.50
2018-11-04T12:17:28.704Z,11.50
2018-11-04T12:19:58.993Z,11.50
2018-11-04T12:22:29.290Z,11.50
2018-11-04T12:24:59.613Z,11.50
2018-11-04T12:27:29.851Z,11.50
2018-11-04T12:30:00.353Z,11.50
2018-11-04T12:32:30.588Z,11.60
2018-11-04T12:35:00.862Z,11.60
2018-11-04T12:37:31.128Z,11.70
2018-11-04T12:40:01.337Z,11.70
2018-11-04T12:42:31.669Z,11.70
2018-11-04T12:45:01.898Z,11.80
2018-11-04T12:47:32.153Z,11.80
2018-11-04T12:50:02.414Z,11.80
2018-11-04T12:52:32.763Z,11.80
2018-11-04T12:55:03.068Z,11.80
2018-11-04T12:57:33.312Z,11.80
2018-11-04T13:00:03.842Z,11.80
2018-11-04T13:02:34.508Z,11.90
2018-11-04T13:05:04.746Z,11.90
2018-11-04T13:19:27.197Z,11.90
2018-11-04T13:21:57.418Z,11.90
2018-11-04T13:24:27.628Z,11.90
2018-11-04T13:26:57.907Z,11.90
2018-11-04T13:29:28.121Z,11.90
2018-11-04T13:31:58.388Z,11.90
2018-11-04T13:34:28.692Z,12.00
2018-11-04T13:36:58.907Z,11.90
2018-11-04T13:39:29.226Z,11.80
2018-11-04T13:41:59.553Z,11.80
2018-11-04T13:44:29.772Z,11.80
2018-11-04T13:47:00.116Z,11.80
2018-11-04T13:49:30.479Z,11.70
2018-11-04T13:52:00.667Z,11.60
2018-11-04T13:54:30.951Z,11.60
2018-11-04T13:57:01.222Z,11.60
2018-11-04T13:59:31.413Z,11.50
2018-11-04T14:02:01.682Z,11.50
2018-11-04T14:04:31.914Z,11.50
2018-11-04T14:07:02.188Z,11.50
2018-11-04T14:09:32.446Z,11.50
2018-11-04T14:12:02.769Z,11.50
2018-11-04T14:14:33.054Z,11.40
2018-11-04T14:17:03.286Z,11.40
2018-11-04T14:19:33.565Z,11.40
2018-11-04T14:22:03.820Z,11.30
2018-11-04T14:24:34.067Z,11.30
2018-11-04T14:27:04.361Z,11.30
2018-11-04T14:29:34.658Z,11.40
2018-11-04T14:32:04.873Z,11.40
2018-11-04T14:34:35.068Z,11.40
2018-11-04T14:37:05.328Z,11.50
2018-11-04T14:39:35.602Z,11.50
2018-11-04T14:42:05.991Z,11.40
2018-11-04T14:44:36.180Z,11.40
2018-11-04T14:47:06.553Z,11.30
2018-11-04T14:49:36.790Z,11.20
2018-11-04T14:52:07.087Z,11.10
2018-11-04T14:54:37.290Z,10.90
2018-11-04T14:57:07.574Z,10.80
2018-11-04T14:59:37.777Z,10.70
2018-11-04T15:02:08.012Z,10.60
2018-11-04T15:04:38.260Z,10.50
2018-11-04T15:07:18.777Z,10.50
2018-11-04T15:09:48.990Z,10.40
2018-11-04T15:12:19.274Z,10.40
2018-11-04T15:14:49.519Z,10.20
2018-11-04T15:17:19.752Z,10.10
2018-11-04T15:19:49.981Z,10.00
2018-11-04T15:22:20.264Z,9.90
2018-11-04T15:24:50.572Z,9.80
2018-11-04T15:27:20.738Z,9.60
2018-11-04T15:29:50.933Z,9.40
2018-11-04T15:32:21.201Z,9.30
2018-11-04T15:34:51.564Z,9.10
2018-11-04T15:37:21.637Z,9.00
2018-11-04T15:39:51.869Z,8.90
2018-11-04T15:42:22.117Z,8.80
2018-11-04T15:44:52.310Z,8.70
2018-11-04T15:47:22.526Z,8.50
2018-11-04T15:49:52.723Z,8.40
2018-11-04T15:52:22.937Z,8.30
2018-11-04T15:54:53.227Z,8.20
2018-11-04T15:57:23.433Z,8.10
2018-11-04T15:59:53.677Z,8.00
2018-11-04T16:02:23.855Z,7.90
2018-11-04T16:04:54.045Z,7.90
2018-11-04T16:07:24.250Z,7.90
2018-11-04T16:09:54.581Z,7.90
2018-11-04T16:12:25.014Z,7.90
2018-11-04T16:14:55.330Z,7.90
2018-11-04T16:17:25.532Z,7.90
2018-11-04T16:19:55.756Z,7.90
2018-11-04T16:22:25.926Z,7.90
2018-11-04T16:24:56.138Z,7.90
2018-11-04T16:27:26.429Z,7.90
2018-11-04T16:29:56.637Z,8.00
2018-11-04T16:32:26.800Z,8.00
2018-11-04T16:34:57.026Z,8.00
2018-11-04T16:37:27.178Z,8.00
2018-11-04T16:39:57.369Z,8.00
2018-11-04T16:42:27.560Z,8.00
2018-11-04T16:44:57.741Z,8.10
2018-11-04T16:47:28.022Z,8.10
2018-11-04T16:49:58.324Z,8.10
2018-11-04T16:52:30.653Z,8.10
2018-11-04T16:55:00.910Z,8.20
2018-11-04T16:57:31.192Z,8.20
2018-11-04T17:00:01.381Z,8.30
2018-11-04T17:02:31.639Z,8.30
2018-11-04T17:05:02.573Z,8.40
2018-11-04T17:07:32.944Z,8.40
2018-11-04T17:10:03.152Z,8.40
2018-11-04T17:12:33.467Z,8.50
2018-11-04T17:15:03.682Z,8.50
2018-11-04T17:17:33.829Z,8.50
2018-11-04T17:20:04.166Z,8.50
2018-11-04T17:22:34.399Z,8.50
2018-11-04T17:25:04.610Z,8.60
2018-11-04T17:27:34.825Z,8.60
2018-11-04T17:30:06.909Z,8.70
2018-11-04T17:32:37.285Z,8.70
2018-11-04T17:35:08.915Z,8.70
2018-11-04T17:37:39.320Z,8.80
2018-11-04T17:40:10.796Z,8.80
2018-11-04T17:42:41.083Z,8.80
2018-11-04T17:45:13.549Z,8.80
2018-11-04T17:47:43.848Z,8.80
2018-11-04T17:50:15.827Z,8.80
2018-11-04T17:52:46.291Z,8.90
2018-11-04T17:55:16.671Z,8.90
2018-11-04T17:57:46.957Z,8.90
2018-11-04T18:00:17.818Z,9.00
2018-11-04T18:02:48.108Z,9.00
2018-11-04T18:05:18.372Z,9.00
2018-11-04T18:07:48.558Z,9.00
2018-11-04T18:10:18.778Z,9.00
2018-11-04T18:12:49.003Z,9.10
2018-11-04T18:15:19.234Z,9.10
2018-11-04T18:17:49.436Z,9.10
2018-11-04T18:20:19.691Z,9.10
2018-11-04T18:22:49.940Z,9.20
2018-11-04T18:25:20.252Z,9.20
2018-11-04T18:27:50.450Z,9.30
2018-11-04T18:30:20.733Z,9.30
2018-11-04T18:32:50.998Z,9.30
2018-11-04T18:35:21.488Z,9.30
2018-11-04T18:37:51.694Z,9.40
2018-11-04T18:40:21.960Z,9.40
2018-11-04T18:42:52.341Z,9.40
2018-11-04T18:45:22.519Z,9.50
2018-11-04T18:47:54.014Z,9.50
2018-11-04T18:50:24.390Z,9.50
2018-11-04T18:52:55.016Z,9.50
2018-11-04T18:55:25.188Z,9.50
2018-11-04T18:57:55.556Z,9.50
2018-11-04T19:00:25.812Z,9.50
2018-11-04T19:02:56.236Z,9.50
2018-11-04T19:05:29.004Z,9.50
2018-11-04T19:07:59.409Z,9.50
2018-11-04T19:10:37.215Z,9.50
2018-11-04T19:13:07.746Z,9.50
2018-11-04T19:15:37.997Z,9.50
2018-11-04T19:18:16.599Z,9.50
2018-11-04T19:20:49.184Z,9.40
2018-11-04T19:23:26.966Z,9.40
2018-11-04T19:26:02.162Z,9.30
2018-11-04T19:28:32.482Z,9.30
2018-11-04T19:31:10.085Z,9.30
2018-11-04T19:33:44.896Z,9.20
2018-11-04T19:36:15.364Z,9.20
2018-11-04T19:38:46.761Z,9.20
2018-11-04T19:41:16.997Z,9.20
2018-11-04T19:43:47.151Z,9.20
2018-11-04T19:46:17.428Z,9.20
2018-11-04T19:48:47.742Z,9.20
2018-11-04T19:51:18.051Z,9.20
2018-11-04T19:53:48.363Z,9.20
2018-11-04T19:56:18.653Z,9.20
2018-11-04T19:58:48.888Z,9.30
2018-11-04T20:01:19.138Z,9.30
2018-11-04T20:03:49.325Z,9.30
2018-11-04T20:06:19.560Z,9.40
2018-11-04T20:08:54.712Z,9.40
2018-11-04T20:11:24.892Z,9.40
2018-11-04T20:14:00.150Z,9.50
2018-11-04T20:16:30.354Z,9.50
2018-11-04T20:19:05.732Z,9.40
2018-11-04T20:21:44.928Z,9.40
2018-11-04T20:24:20.183Z,9.40
2018-11-04T20:26:50.681Z,9.40
2018-11-04T20:29:20.932Z,9.30
2018-11-04T20:31:57.319Z,9.40
2018-11-04T20:34:27.552Z,9.50
2018-11-04T20:36:57.933Z,9.50
2018-11-04T20:39:32.997Z,9.50
2018-11-04T20:42:03.271Z,9.40
2018-11-04T20:44:37.547Z,9.40
2018-11-04T20:47:07.772Z,9.40
2018-11-04T20:49:42.805Z,9.30
2018-11-04T20:52:13.038Z,9.30
2018-11-04T20:54:43.222Z,9.30
2018-11-04T20:57:18.542Z,9.20
2018-11-04T20:59:48.837Z,9.20
2018-11-04T21:02:19.256Z,9.20
2018-11-04T21:04:49.321Z,9.20
2018-11-04T21:07:19.560Z,9.30
2018-11-04T21:09:49.798Z,9.30
2018-11-04T21:12:20.029Z,9.30
2018-11-04T21:14:50.331Z,9.20
2018-11-04T21:17:20.892Z,9.20
2018-11-04T21:19:51.282Z,9.20
2018-11-04T21:22:21.575Z,9.20
2018-11-04T21:24:51.954Z,9.20
2018-11-04T21:27:21.993Z,9.30
2018-11-04T21:29:52.405Z,9.30
2018-11-04T21:32:22.531Z,9.30
2018-11-04T21:34:55.975Z,9.20
2018-11-04T21:37:26.805Z,9.20
2018-11-04T21:39:57.017Z,9.20
2018-11-04T21:42:27.261Z,9.20
2018-11-04T21:44:57.472Z,9.20
2018-11-04T21:47:27.696Z,9.20
2018-11-04T21:49:57.890Z,9.10
2018-11-04T21:52:28.119Z,9.10
2018-11-04T21:54:58.344Z,9.10
2018-11-04T22:00:02.765Z,9.10
2018-11-04T22:02:33.069Z,9.10
2018-11-04T22:05:03.149Z,9.20
2018-11-04T22:07:33.449Z,9.30
2018-11-04T22:10:03.754Z,9.30
2018-11-04T22:12:33.991Z,9.30
2018-11-04T22:15:04.410Z,9.30
2018-11-04T22:17:34.635Z,9.30
2018-11-04T22:20:05.355Z,9.30
2018-11-04T22:22:35.620Z,9.20
2018-11-04T22:25:06.352Z,9.20
2018-11-04T22:27:36.597Z,9.20
2018-11-04T22:30:08.293Z,9.20
2018-11-04T22:32:38.816Z,9.20
2018-11-04T22:35:10.691Z,9.20
2018-11-04T22:37:41.013Z,9.20
2018-11-04T22:40:12.247Z,9.20
2018-11-04T22:42:42.835Z,9.10
2018-11-04T22:45:13.444Z,9.10
2018-11-04T22:47:43.816Z,9.10
2018-11-04T22:50:15.162Z,9.10
2018-11-04T22:52:45.515Z,9.20
2018-11-04T22:55:15.914Z,9.20
2018-11-04T22:57:46.225Z,9.20
2018-11-04T23:00:21.580Z,9.20
2018-11-04T23:02:51.856Z,9.20
2018-11-04T23:05:28.411Z,9.20
2018-11-04T23:07:58.622Z,9.10
2018-11-04T23:10:28.795Z,9.10
2018-11-04T23:12:59.013Z,9.20
2018-11-04T23:15:29.222Z,9.20
2018-11-04T23:17:59.495Z,9.20
2018-11-04T23:20:29.710Z,9.20
2018-11-04T23:22:59.908Z,9.20
2018-11-04T23:25:30.133Z,9.20
2018-11-04T23:28:00.375Z,9.20
2018-11-04T23:30:30.615Z,9.20
2018-11-04T23:33:00.804Z,9.20
2018-11-04T23:35:31.064Z,9.20
2018-11-04T23:38:01.245Z,9.20
2018-11-04T23:40:31.486Z,9.20
2018-11-04T23:43:01.696Z,9.20
2018-11-04T23:45:31.917Z,9.10
2018-11-04T23:48:02.141Z,9.10
2018-11-04T23:50:32.309Z,9.20
2018-11-04T23:53:02.569Z,9.20
2018-11-04T23:55:32.788Z,9.20
2018-11-04T23:58:03.000Z,9.20
